Time;durP1;ratioP1;P1;durP2;ratioP2;P2;SDS_P1;SDS_P2;PMS_P1;PMS_P2;Temp;Humidity;BMP_temperature;BMP_pressure;BME280_temperature;BME280_humidity;BME280_pressure;Samples;Min_cycle;Max_cycle;Signal;HPM_P1;HPM_P2
2022/05/17 00:00:59;;;;;;;7.57;3.25;;;;;;;14.08;77.26;101860.06;4963869;28;20034;-85
2022/05/17 00:03:25;;;;;;;13.82;3.30;;;;;;;14.05;78.00;101858.59;4996015;28;20030;-85
2022/05/17 00:05:51;;;;;;;8.87;3.50;;;;;;;14.00;77.41;101859.25;4980118;28;20062;-85
2022/05/17 00:08:17;;;;;;;10.48;3.72;;;;;;;13.97;78.21;101856.94;4963675;28;20479;-85
2022/05/17 00:10:44;;;;;;;11.63;3.40;;;;;;;13.91;78.67;101855.06;4979823;28;20470;-85
2022/05/17 00:13:11;;;;;;;8.00;3.07;;;;;;;13.91;79.21;101855.06;4979652;28;20081;-85
2022/05/17 00:15:40;;;;;;;10.55;3.10;;;;;;;13.90;78.90;101853.38;4979714;28;20397;-85
2022/05/17 00:18:05;;;;;;;13.45;3.30;;;;;;;13.91;79.90;101848.78;4995801;28;20112;-85
2022/05/17 00:20:32;;;;;;;17.67;4.15;;;;;;;13.88;79.18;101851.91;4979679;28;20029;-85
2022/05/17 00:22:58;;;;;;;9.53;3.70;;;;;;;13.87;78.98;101842.91;4979320;28;20493;-85
2022/05/17 00:25:25;;;;;;;8.18;3.38;;;;;;;13.90;78.75;101841.66;4978352;28;20062;-85
2022/05/17 00:27:50;;;;;;;12.00;3.70;;;;;;;13.91;78.71;101838.72;4978664;28;20030;-85
2022/05/17 00:30:16;;;;;;;11.27;3.43;;;;;;;13.95;78.22;101833.66;4977809;28;20034;-85
2022/05/17 00:32:41;;;;;;;12.87;3.77;;;;;;;13.97;78.21;101828.84;4946030;28;20125;-85
2022/05/17 00:35:08;;;;;;;12.43;4.18;;;;;;;14.01;78.17;101833.66;4994685;28;20398;-85
2022/05/17 00:37:34;;;;;;;13.33;4.77;;;;;;;14.02;78.90;101838.06;4962230;28;20034;-84
2022/05/17 00:40:00;;;;;;;11.48;4.30;;;;;;;14.04;78.81;101840.56;4962261;28;20034;-85
2022/05/17 00:42:26;;;;;;;12.77;4.38;;;;;;;14.03;78.66;101827.97;4995696;28;20141;-85
2022/05/17 00:44:51;;;;;;;10.73;3.97;;;;;;;14.05;78.74;101828.59;4994290;28;20473;-85
2022/05/17 00:47:21;;;;;;;15.55;4.22;;;;;;;14.07;78.56;101818.31;4995308;28;20030;-85
2022/05/17 00:50:10;;;;;;;16.03;3.90;;;;;;;14.12;78.67;101828.56;4995422;28;20096;-85
2022/05/17 00:52:36;;;;;;;7.80;3.95;;;;;;;14.11;78.44;101829.63;4978549;28;20371;-84
2022/05/17 00:55:26;;;;;;;17.67;4.33;;;;;;;14.07;77.88;101825.63;4993618;28;20031;-85
2022/05/17 00:58:03;;;;;;;10.40;4.20;;;;;;;14.01;78.43;101822.72;4994029;28;20108;-85
2022/05/17 01:00:35;;;;;;;9.77;4.18;;;;;;;13.97;78.96;101826.09;4977967;28;20176;-85
2022/05/17 01:03:04;;;;;;;14.52;4.57;;;;;;;13.92;79.11;101818.56;4995082;28;20026;-85
2022/05/17 01:05:34;;;;;;;14.33;3.90;;;;;;;13.90;79.25;101820.66;4977667;28;20057;-85
2022/05/17 01:08:01;;;;;;;16.38;4.43;;;;;;;13.86;79.60;101820.25;4977557;28;20397;-85
2022/05/17 01:10:29;;;;;;;10.93;4.13;;;;;;;13.83;79.92;101814.38;4995041;28;20116;-85
2022/05/17 01:15:41;;;;;;;10.50;4.07;;;;;;;13.80;79.82;101807.47;4995444;28;20497;-85
2022/05/17 01:18:07;;;;;;;12.60;4.27;;;;;;;13.81;80.58;101811.84;4977539;28;20034;-85
2022/05/17 01:20:33;;;;;;;12.52;4.15;;;;;;;13.81;80.25;101814.59;4993691;28;20050;-85
2022/05/17 01:23:01;;;;;;;11.57;4.27;;;;;;;13.86;80.56;101820.25;4960738;28;20671;-85
2022/05/17 01:25:28;;;;;;;12.57;4.40;;;;;;;13.88;80.42;101819.19;4950794;28;1254991;-85
2022/05/17 01:28:12;;;;;;;12.63;4.80;;;;;;;13.91;79.67;101816.88;4978263;28;20039;-85
2022/05/17 01:30:37;;;;;;;11.48;4.40;;;;;;;13.98;80.25;101825.03;4994262;28;20069;-85
2022/05/17 01:33:04;;;;;;;10.50;4.20;;;;;;;14.04;79.70;101824.19;4978134;28;20121;-85
2022/05/17 01:35:29;;;;;;;10.77;4.47;;;;;;;14.09;80.71;101818.09;4995634;28;20034;-85
2022/05/17 01:37:56;;;;;;;8.97;4.57;;;;;;;14.16;79.95;101816.19;4994394;28;20022;-84
2022/05/17 01:40:25;;;;;;;10.60;4.73;;;;;;;14.23;79.26;101821.59;4993551;28;20380;-84
2022/05/17 01:42:51;;;;;;;14.30;4.15;;;;;;;14.26;79.07;101818.44;4994055;28;20274;-85
2022/05/17 01:45:16;;;;;;;14.32;4.10;;;;;;;14.29;78.61;101821.59;4994070;28;20137;-85
2022/05/17 01:47:42;;;;;;;11.27;4.40;;;;;;;14.34;79.43;101815.47;4977886;28;20034;-85
2022/05/17 01:50:08;;;;;;;13.70;4.47;;;;;;;14.35;78.73;101823.44;4977793;28;20030;-85
2022/05/17 01:52:33;;;;;;;12.13;4.50;;;;;;;14.37;78.41;101818.59;4977685;28;20045;-85
2022/05/17 01:54:59;;;;;;;16.47;4.30;;;;;;;14.36;78.34;101825.13;4994756;28;20382;-85
2022/05/17 01:57:25;;;;;;;13.27;4.67;;;;;;;14.37;78.52;101823.22;4977850;28;20273;-85
2022/05/17 01:59:50;;;;;;;13.53;4.63;;;;;;;14.38;78.38;101817.53;4993804;28;20422;-85
2022/05/17 02:02:15;;;;;;;13.02;4.55;;;;;;;14.36;78.48;101819.66;4993709;28;20027;-85
2022/05/17 02:04:42;;;;;;;13.50;4.60;;;;;;;14.36;78.68;101819.66;4977353;28;20037;-85
2022/05/17 02:07:07;;;;;;;14.40;4.80;;;;;;;14.38;78.09;101817.53;4995273;28;20027;-85
2022/05/17 02:09:33;;;;;;;13.90;4.90;;;;;;;14.40;77.71;101820.06;4977424;28;20031;-85
2022/05/17 02:11:58;;;;;;;11.40;4.57;;;;;;;14.39;77.93;101819.22;4977413;28;20073;-85
2022/05/17 02:14:27;;;;;;;9.47;4.47;;;;;;;14.38;77.62;101820.28;4993676;28;20022;-85
2022/05/17 02:16:52;;;;;;;11.67;4.80;;;;;;;14.40;77.57;101820.06;4977319;28;20278;-85
2022/05/17 02:19:20;;;;;;;10.68;4.63;;;;;;;14.43;77.37;101821.53;4977612;28;20485;-85
2022/05/17 02:21:46;;;;;;;12.40;3.90;;;;;;;14.39;77.57;101815.66;4993556;28;20137;-85
2022/05/17 02:24:13;;;;;;;10.70;4.30;;;;;;;14.42;77.45;101825.31;4976889;28;20050;-85
2022/05/17 02:26:38;;;;;;;12.90;4.97;;;;;;;14.43;77.52;101813.34;4994748;28;20097;-85
2022/05/17 02:29:04;;;;;;;13.03;4.20;;;;;;;14.44;77.40;101821.31;4994465;28;20426;-84
2022/05/17 02:31:29;;;;;;;14.32;4.43;;;;;;;14.53;77.63;101813.69;4993199;28;20360;-85
2022/05/17 02:33:55;;;;;;;7.03;4.17;;;;;;;14.58;77.82;101822.06;4994642;28;20086;-85
2022/05/17 02:36:21;;;;;;;9.80;4.17;;;;;;;14.62;77.47;101825.25;4993322;28;20037;-84
2022/05/17 02:38:46;;;;;;;13.40;4.65;;;;;;;14.60;77.31;101830.03;4993306;28;20026;-84
2022/05/17 02:41:13;;;;;;;10.17;4.13;;;;;;;14.59;77.33;101823.75;4977252;28;20394;-85
2022/05/17 02:43:38;;;;;;;8.20;4.27;;;;;;;14.62;77.59;101828.81;4993033;28;20278;-85
2022/05/17 02:46:04;;;;;;;13.18;4.85;;;;;;;14.61;77.45;101831.72;4977089;28;20041;-85
2022/05/17 02:48:30;;;;;;;11.10;4.75;;;;;;;14.60;77.30;101836.34;4993180;28;20449;-85
2022/05/17 02:50:55;;;;;;;12.40;4.90;;;;;;;14.62;78.13;101838.91;4976888;28;20054;-85
2022/05/17 02:53:21;;;;;;;10.77;4.40;;;;;;;14.63;78.19;101837.81;4976806;28;20046;-84
2022/05/17 02:55:47;;;;;;;13.48;4.93;;;;;;;14.63;79.46;101837.81;4977130;28;20039;-84
2022/05/17 02:58:12;;;;;;;9.97;3.93;;;;;;;14.63;79.38;101838.69;4994292;28;20041;-84
2022/05/17 03:00:38;;;;;;;11.93;5.22;;;;;;;14.62;79.56;101837.00;4994181;28;20038;-84
2022/05/17 03:03:04;;;;;;;12.30;4.40;;;;;;;14.59;80.20;101844.78;4976904;28;20493;-85
2022/05/17 03:05:29;;;;;;;13.00;4.78;;;;;;;14.51;78.80;101845.84;4976986;28;20158;-85
2022/05/17 03:07:55;;;;;;;10.37;4.20;;;;;;;14.42;78.43;101836.22;4993067;28;20093;-84
2022/05/17 03:10:21;;;;;;;13.17;4.70;;;;;;;14.38;78.50;101839.38;4976934;28;20038;-84
2022/05/17 03:12:47;;;;;;;8.13;4.68;;;;;;;14.37;78.81;101831.41;4976980;28;20027;-85
2022/05/17 03:15:18;;;;;;;11.60;4.50;;;;;;;14.36;79.32;101837.91;4976619;28;20114;-85
2022/05/17 03:17:43;;;;;;;13.45;4.95;;;;;;;14.35;78.84;101834.38;4992867;28;20117;-85
2022/05/17 03:20:10;;;;;;;12.43;4.60;;;;;;;14.32;78.85;101845.72;4977070;28;20479;-85
2022/05/17 03:22:36;;;;;;;10.13;4.20;;;;;;;14.30;78.95;101841.53;4976717;28;20041;-85
2022/05/17 03:25:01;;;;;;;10.43;4.60;;;;;;;14.31;79.60;101838.56;4993126;28;20402;-85
2022/05/17 03:27:26;;;;;;;13.32;4.63;;;;;;;14.29;79.75;101843.44;4976783;28;20065;-85
2022/05/17 03:29:52;;;;;;;14.43;4.20;;;;;;;14.27;79.24;101844.69;4944430;28;20042;-84
2022/05/17 03:32:17;;;;;;;12.70;4.53;;;;;;;14.21;79.72;101849.09;4976676;28;20084;-84
2022/05/17 03:34:43;;;;;;;11.70;4.17;;;;;;;14.16;80.26;101836.13;4994241;28;20462;-84
2022/05/17 03:37:08;;;;;;;13.23;4.60;;;;;;;14.09;80.68;101848.09;4976698;28;20034;-85
2022/05/17 03:39:34;;;;;;;11.52;4.00;;;;;;;14.10;80.94;101844.31;4960722;28;20037;-85
2022/05/17 03:41:59;;;;;;;8.13;4.30;;;;;;;14.09;80.89;101846.22;4993630;28;20034;-85
2022/05/17 03:44:25;;;;;;;13.33;4.70;;;;;;;14.07;80.79;101853.78;4993592;28;20030;-85
2022/05/17 03:46:50;;;;;;;10.60;4.43;;;;;;;14.02;80.58;101848.13;4976924;28;20136;-85
2022/05/17 03:49:15;;;;;;;11.50;4.10;;;;;;;14.04;81.12;101846.03;4993551;28;20284;-85
2022/05/17 03:51:41;;;;;;;8.20;4.07;;;;;;;14.03;81.19;101842.44;4993914;28;20035;-85
2022/05/17 03:54:07;;;;;;;13.77;4.73;;;;;;;14.04;81.23;101852.31;4960155;28;20034;-85
2022/05/17 03:56:32;;;;;;;15.15;4.47;;;;;;;14.01;80.86;101850.00;4993663;28;20501;-84
2022/05/17 03:58:57;;;;;;;15.70;4.63;;;;;;;14.00;80.86;101850.22;4976436;28;20026;-85
2022/05/17 04:01:23;;;;;;;7.73;3.93;;;;;;;14.01;81.03;101849.16;4960004;28;20034;-85
2022/05/17 04:03:48;;;;;;;11.40;3.93;;;;;;;14.00;80.93;101842.88;4994754;28;20378;-85
2022/05/17 04:06:14;;;;;;;10.83;4.20;;;;;;;14.04;80.67;101843.31;4947682;28;20278;-85
2022/05/17 04:08:40;;;;;;;9.03;4.10;;;;;;;14.07;81.07;101840.13;4947768;28;20035;-85
2022/05/17 04:11:06;;;;;;;10.40;3.80;;;;;;;14.10;80.81;101845.16;4979690;28;20034;-85
2022/05/17 04:13:33;;;;;;;10.38;4.05;;;;;;;14.14;80.76;101856.47;4979624;28;20414;-85
2022/05/17 04:16:00;;;;;;;8.53;3.67;;;;;;;14.16;80.72;101854.38;4996438;28;20129;-85
2022/05/17 04:18:26;;;;;;;9.45;3.80;;;;;;;14.16;80.34;101857.13;4979973;28;20038;-85
2022/05/17 04:21:00;;;;;;;12.30;3.80;;;;;;;14.17;80.52;101856.91;4995858;28;20041;-85
2022/05/17 04:23:26;;;;;;;9.32;3.80;;;;;;;14.26;80.46;101862.97;4963011;28;20041;-85
2022/05/17 04:25:52;;;;;;;8.60;4.00;;;;;;;14.35;80.48;101861.66;4963294;28;20054;-84
2022/05/17 04:28:17;;;;;;;7.90;4.27;;;;;;;14.46;80.23;101867.50;4963196;28;20045;-85
2022/05/17 04:30:44;;;;;;;8.87;3.87;;;;;;;14.54;80.31;101861.78;4978929;28;20078;-85
2022/05/17 04:33:10;;;;;;;10.32;4.20;;;;;;;14.61;79.60;101864.50;4979718;28;20030;-85
2022/05/17 04:35:35;;;;;;;8.47;3.70;;;;;;;14.68;78.69;101862.59;4996784;28;20477;-85
2022/05/17 04:38:01;;;;;;;12.27;3.63;;;;;;;14.74;79.21;101867.19;4963037;28;20116;-85
2022/05/17 04:40:29;;;;;;;12.32;4.57;;;;;;;14.85;78.95;101869.22;4979294;28;20034;-85
2022/05/17 04:42:57;;;;;;;11.18;3.72;;;;;;;14.94;78.98;101867.09;4979357;28;20034;-85
2022/05/17 04:45:23;;;;;;;11.98;3.55;;;;;;;15.01;77.45;101873.31;4947767;28;20057;-84
2022/05/17 04:47:49;;;;;;;8.00;3.80;;;;;;;15.00;77.18;101871.66;4996477;28;20088;-85
2022/05/17 04:50:17;;;;;;;16.85;4.28;;;;;;;15.06;76.91;101867.22;4978775;28;20035;-84
2022/05/17 04:52:43;;;;;;;7.47;4.20;;;;;;;15.13;76.88;101869.88;4996345;28;20093;-85
2022/05/17 04:55:10;;;;;;;8.55;4.47;;;;;;;15.18;76.64;101872.81;4978182;28;20036;-85
2022/05/17 04:57:35;;;;;;;11.60;4.25;;;;;;;15.24;76.16;101864.53;4994883;28;20121;-85
2022/05/17 05:00:08;;;;;;;8.33;4.13;;;;;;;15.32;75.97;101863.44;4995419;28;20471;-85
2022/05/17 05:02:34;;;;;;;12.57;4.95;;;;;;;15.39;75.42;101866.13;4994965;28;20379;-85
2022/05/17 05:04:59;;;;;;;10.27;4.63;;;;;;;15.43;75.04;101870.91;4994746;28;20184;-85
2022/05/17 05:07:25;;;;;;;14.33;4.47;;;;;;;15.55;75.38;101873.75;4994734;28;20034;-85
2022/05/17 05:09:50;;;;;;;11.20;5.00;;;;;;;15.67;75.16;101881.25;4978666;28;20039;-85
2022/05/17 05:12:16;;;;;;;16.10;4.47;;;;;;;15.74;74.87;101873.81;4962182;28;20274;-85
2022/05/17 05:14:41;;;;;;;9.63;4.60;;;;;;;15.84;74.35;101876.91;4977895;28;20045;-85
2022/05/17 05:17:09;;;;;;;12.90;4.47;;;;;;;15.86;73.27;101891.19;4977923;28;20390;-84
2022/05/17 05:19:35;;;;;;;11.15;4.50;;;;;;;15.87;73.57;101887.41;4978463;28;20030;-85
2022/05/17 05:22:00;;;;;;;10.32;4.80;;;;;;;15.93;73.25;101888.41;4978320;28;20394;-84
2022/05/17 05:24:26;;;;;;;15.97;5.20;;;;;;;15.90;73.06;101897.91;4994777;28;20521;-85
2022/05/17 05:26:51;;;;;;;13.55;4.78;;;;;;;15.85;73.24;101896.91;4995289;28;20098;-84
2022/05/17 05:29:17;;;;;;;13.70;5.67;;;;;;;15.83;73.61;101899.03;4994481;28;20471;-85
2022/05/17 05:31:42;;;;;;;14.80;4.90;;;;;;;15.85;74.03;101907.84;4978144;28;20149;-85
2022/05/17 05:34:07;;;;;;;11.67;4.30;;;;;;;15.86;74.06;101904.88;4961940;28;20438;-84
2022/05/17 05:36:33;;;;;;;10.73;4.07;;;;;;;15.91;74.31;101913.22;4995571;28;20033;-82
2022/05/17 05:38:58;;;;;;;15.10;5.05;;;;;;;15.96;74.37;101915.31;4962716;28;20056;-83
2022/05/17 05:41:24;;;;;;;16.17;4.80;;;;;;;15.99;73.35;101916.75;4945736;28;20453;-82
2022/05/17 05:43:49;;;;;;;13.73;5.03;;;;;;;15.96;72.86;101913.41;4977666;28;20050;-81
2022/05/17 05:46:15;;;;;;;14.32;4.80;;;;;;;16.00;73.78;101918.44;4977806;28;20034;-81
2022/05/17 05:48:40;;;;;;;16.73;4.97;;;;;;;16.05;73.94;101915.88;4961788;28;20374;-81
2022/05/17 05:51:07;;;;;;;11.53;5.10;;;;;;;16.11;73.30;101920.44;4995021;28;20093;-82
2022/05/17 05:53:32;;;;;;;13.88;5.85;;;;;;;16.18;72.43;101926.69;4994684;28;20368;-82
2022/05/17 05:56:01;;;;;;;14.63;5.33;;;;;;;16.25;71.92;101919.22;4961125;28;20052;-82
2022/05/17 05:58:31;;;;;;;14.60;5.30;;;;;;;16.35;72.38;101923.34;4978337;28;20497;-82
2022/05/17 06:00:57;;;;;;;12.52;5.20;;;;;;;16.30;72.62;101921.28;4994948;28;20014;-82
2022/05/17 06:03:23;;;;;;;13.53;5.37;;;;;;;16.25;73.88;101929.34;4993457;28;20053;-82
2022/05/17 06:05:48;;;;;;;21.38;5.90;;;;;;;16.09;73.65;101914.34;4993516;28;20034;-82
2022/05/17 06:08:15;;;;;;;14.80;5.50;;;;;;;15.94;73.40;101917.44;4977060;28;20034;-82
2022/05/17 06:10:41;;;;;;;21.88;6.40;;;;;;;15.95;74.77;101924.59;4992975;28;20022;-82
2022/05/17 06:13:11;;;;;;;22.83;6.65;;;;;;;16.05;75.04;101916.69;4976616;28;20026;-82
2022/05/17 06:15:37;;;;;;;21.70;6.47;;;;;;;16.18;74.25;101926.69;4976664;28;20043;-81
2022/05/17 06:18:07;;;;;;;16.42;6.15;;;;;;;16.35;73.90;101918.69;4993104;28;20140;-81
2022/05/17 06:20:34;;;;;;;17.95;5.60;;;;;;;16.43;72.42;101925.75;4960416;28;20049;-82
2022/05/17 06:22:59;;;;;;;18.25;5.70;;;;;;;16.40;72.00;101928.97;4960933;28;20031;-82
2022/05/17 06:25:25;;;;;;;11.93;5.67;;;;;;;16.40;72.13;101923.47;4976218;28;20072;-81
2022/05/17 06:27:51;;;;;;;15.30;5.37;;;;;;;16.40;71.74;101929.81;4976380;28;20030;-82
2022/05/17 06:30:17;;;;;;;9.43;4.60;;;;;;;16.39;71.43;101919.91;4976645;28;20289;-82
2022/05/17 06:32:43;;;;;;;14.90;5.40;;;;;;;16.40;72.06;101923.47;4992746;28;20032;-82
2022/05/17 06:35:10;;;;;;;12.55;5.35;;;;;;;16.45;72.00;101918.16;4976717;28;20452;-82
2022/05/17 06:37:37;;;;;;;18.37;5.77;;;;;;;16.53;71.74;101923.31;4992689;28;20507;-82
2022/05/17 06:40:03;;;;;;;12.32;5.20;;;;;;;16.62;71.15;101929.31;4960895;28;20129;-82
2022/05/17 06:42:29;;;;;;;17.38;5.38;;;;;;;16.75;70.82;101937.38;4977141;28;20045;-81
2022/05/17 06:44:55;;;;;;;14.87;5.27;;;;;;;16.86;70.63;101935.78;4944918;28;20394;-82
2022/05/17 06:47:23;;;;;;;13.75;5.60;;;;;;;16.83;70.61;101936.25;4960673;28;20390;-82
2022/05/17 06:49:48;;;;;;;13.77;5.53;;;;;;;16.95;70.49;101936.34;4976474;28;20038;-82
2022/05/17 06:52:14;;;;;;;11.27;5.50;;;;;;;17.02;70.42;101934.31;4944367;28;20153;-82
2022/05/17 06:54:43;;;;;;;11.10;5.47;;;;;;;17.05;70.06;101936.63;4975998;28;20177;-82
2022/05/17 06:57:14;;;;;;;12.15;5.45;;;;;;;17.04;69.97;101932.19;4976618;28;20041;-82
2022/05/17 06:59:41;;;;;;;14.40;5.93;;;;;;;17.14;69.98;101939.84;4992838;28;20022;-82
2022/05/17 07:02:07;;;;;;;9.82;4.95;;;;;;;17.26;69.94;101937.13;4976875;28;20129;-82
2022/05/17 07:04:33;;;;;;;22.92;6.35;;;;;;;17.34;69.99;101942.31;4976470;28;20035;-82
2022/05/17 07:06:59;;;;;;;19.57;6.33;;;;;;;17.48;70.63;101951.16;4994174;28;20034;-82
2022/05/17 07:09:26;;;;;;;13.40;5.85;;;;;;;17.52;71.10;101950.47;4976674;28;20053;-81
2022/05/17 07:14:37;;;;;;;14.67;5.57;;;;;;;17.63;70.21;101939.75;4965919;28;20045;-82
2022/05/17 07:17:25;;;;;;;14.82;5.82;;;;;;;17.68;70.92;101948.94;4960514;28;20030;-82
2022/05/17 07:19:53;;;;;;;14.77;6.40;;;;;;;17.62;73.56;101949.88;4992715;28;20058;-82
2022/05/17 07:22:19;;;;;;;13.55;5.80;;;;;;;17.55;74.63;101949.16;4976447;28;20042;-82
2022/05/17 07:24:46;;;;;;;16.43;6.20;;;;;;;17.44;74.67;101960.94;4975586;28;20498;-82
2022/05/17 07:27:12;;;;;;;12.98;6.10;;;;;;;17.39;77.33;101956.16;4976855;28;20134;-82
2022/05/17 07:29:37;;;;;;;13.52;6.15;;;;;;;17.44;77.67;101958.22;4993733;28;20031;-83
2022/05/17 07:32:03;;;;;;;20.27;6.23;;;;;;;17.44;75.50;101953.53;4993756;28;20097;-82
2022/05/17 07:34:29;;;;;;;16.05;6.43;;;;;;;17.51;77.49;101957.03;4976312;28;20089;-82
2022/05/17 07:36:55;;;;;;;13.27;6.10;;;;;;;17.56;77.41;101950.81;4944335;28;20039;-82
2022/05/17 07:39:20;;;;;;;18.33;7.00;;;;;;;17.61;76.15;101944.63;4995456;28;20061;-83
2022/05/17 07:41:45;;;;;;;16.80;6.80;;;;;;;17.73;76.61;101952.88;4980269;28;20113;-83
2022/05/17 07:44:11;;;;;;;20.37;6.53;;;;;;;17.87;78.14;101943.34;4996518;28;20466;-83
2022/05/17 07:46:37;;;;;;;16.43;6.13;;;;;;;18.00;75.30;101950.56;4996419;28;20463;-83
2022/05/17 07:49:03;;;;;;;14.18;6.28;;;;;;;18.18;76.31;101963.34;4997803;28;20034;-83
2022/05/17 07:51:29;;;;;;;14.93;5.93;;;;;;;18.34;74.89;101954.34;4996071;28;20482;-83
2022/05/17 07:53:55;;;;;;;16.60;6.03;;;;;;;18.56;72.78;101961.97;4997300;28;20045;-83
2022/05/17 07:56:20;;;;;;;13.20;6.20;;;;;;;18.79;72.76;101963.00;4996941;28;20038;-83
2022/05/17 07:58:46;;;;;;;20.60;6.23;;;;;;;18.88;71.71;101956.91;4979842;28;20041;-83
2022/05/17 08:01:12;;;;;;;18.42;6.47;;;;;;;18.97;72.71;101962.84;4977092;28;20069;-82
2022/05/17 08:03:38;;;;;;;15.05;6.40;;;;;;;19.03;71.94;101969.25;4999470;28;20393;-83
2022/05/17 08:06:03;;;;;;;16.93;6.63;;;;;;;19.03;71.13;101970.13;5015458;28;20025;-83
2022/05/17 08:08:29;;;;;;;12.45;5.95;;;;;;;19.01;71.12;101971.44;4999049;28;20034;-82
2022/05/17 08:10:54;;;;;;;13.83;5.87;;;;;;;19.09;70.63;101963.63;4966534;28;20057;-82
2022/05/17 08:13:22;;;;;;;20.90;5.90;;;;;;;19.17;69.78;101972.56;4982789;28;20132;-83
2022/05/17 08:15:49;;;;;;;19.58;6.60;;;;;;;19.30;69.93;101971.44;4998710;28;20036;-82
2022/05/17 08:18:16;;;;;;;13.82;5.80;;;;;;;19.42;71.15;101973.03;4982966;28;20100;-82
2022/05/17 08:20:41;;;;;;;16.80;5.88;;;;;;;19.52;69.76;101972.41;5016392;28;20034;-82
2022/05/17 08:23:07;;;;;;;18.20;6.20;;;;;;;19.57;70.86;101977.97;4998874;28;20044;-82
2022/05/17 08:28:17;;;;;;;10.73;5.37;;;;;;;19.61;70.26;101976.41;5001663;28;20053;-83
2022/05/17 08:30:43;;;;;;;20.83;6.07;;;;;;;19.61;69.72;101964.56;4999264;28;20037;-82
2022/05/17 08:33:19;;;;;;;19.83;6.43;;;;;;;19.66;70.64;101970.13;4998757;28;20096;-83
2022/05/17 08:35:50;;;;;;;17.13;6.18;;;;;;;19.78;69.71;101979.22;5016317;28;20022;-82
2022/05/17 08:38:21;;;;;;;12.95;6.13;;;;;;;19.87;69.57;101967.75;5014774;28;20392;-82
2022/05/17 08:40:59;;;;;;;16.53;6.23;;;;;;;20.03;68.83;101971.59;5016261;28;20037;-83
2022/05/17 08:43:29;;;;;;;19.83;5.90;;;;;;;20.09;67.87;101973.34;5015454;28;20040;-82
2022/05/17 08:46:06;;;;;;;14.35;6.50;;;;;;;20.13;66.98;101971.75;4998454;28;20080;-83
2022/05/17 08:48:40;;;;;;;14.65;6.22;;;;;;;20.03;67.23;101971.59;5015949;28;20041;-83
2022/05/17 08:51:06;;;;;;;13.35;5.40;;;;;;;19.98;67.38;101973.19;5015611;28;20537;-83
2022/05/17 08:53:32;;;;;;;14.93;5.33;;;;;;;19.88;67.84;101967.50;4998044;28;20117;-83
2022/05/17 08:55:58;;;;;;;16.80;5.45;;;;;;;19.82;66.80;101975.94;4982133;28;20128;-82
2022/05/17 08:58:28;;;;;;;19.50;6.03;;;;;;;19.79;67.50;101964.34;4981858;28;20042;-82
2022/05/17 09:01:06;;;;;;;18.20;6.45;;;;;;;19.92;67.73;101960.41;5015772;28;20057;-82
2022/05/17 09:03:46;;;;;;;12.57;5.93;;;;;;;20.10;67.85;101961.25;4998082;28;20498;-82
2022/05/17 09:06:35;;;;;;;18.20;6.40;;;;;;;20.37;67.73;101966.03;4998746;28;20033;-82
2022/05/17 09:09:10;;;;;;;21.90;6.57;;;;;;;20.69;66.40;101960.69;4998121;28;20034;-82
2022/05/17 09:11:47;;;;;;;17.15;6.85;;;;;;;20.91;66.22;101951.59;5014403;28;20033;-82
2022/05/17 09:14:19;;;;;;;19.75;6.90;;;;;;;21.16;64.69;101964.81;4997943;28;20030;-82
2022/05/17 09:16:47;;;;;;;20.27;6.43;;;;;;;21.33;64.11;101946.25;4998028;28;20494;-82
2022/05/17 09:19:16;;;;;;;11.30;5.32;;;;;;;21.38;62.42;101951.78;4997859;28;20113;-82
2022/05/17 09:21:44;;;;;;;10.77;4.68;;;;;;;21.49;60.84;101947.19;4981885;28;20061;-83
2022/05/17 09:24:16;;;;;;;10.30;5.00;;;;;;;21.61;60.34;101935.19;5013594;28;20030;-83
2022/05/17 09:27:02;;;;;;;9.43;4.75;;;;;;;21.78;60.22;101941.38;5014934;28;20049;-83
2022/05/17 09:29:36;;;;;;;9.43;3.80;;;;;;;21.89;58.05;101934.84;5015273;28;20065;-83
2022/05/17 09:32:06;;;;;;;10.48;3.70;;;;;;;22.07;56.27;101930.81;4997494;28;20474;-82
2022/05/17 09:34:45;;;;;;;6.80;3.92;;;;;;;22.25;56.61;101939.78;4997526;28;20071;-82
2022/05/17 09:37:17;;;;;;;8.20;4.30;;;;;;;22.42;56.01;101932.13;4997891;28;20026;-83
2022/05/17 09:39:52;;;;;;;8.75;4.15;;;;;;;22.66;55.55;101934.47;5014269;28;20120;-83
2022/05/17 09:42:32;;;;;;;12.53;4.03;;;;;;;22.95;55.27;101934.81;4997727;28;20034;-83
2022/05/17 09:45:02;;;;;;;10.30;4.90;;;;;;;23.28;53.73;101934.63;5013836;28;20353;-83
2022/05/17 09:47:33;;;;;;;10.20;4.07;;;;;;;23.63;53.53;101927.44;4997142;28;20026;-83
2022/05/17 09:53:01;;;;;;;10.93;4.50;;;;;;;24.76;51.79;101921.63;5000419;28;20049;-83
2022/05/17 09:55:31;;;;;;;12.30;4.40;;;;;;;25.19;50.28;101924.69;5013151;28;20033;-83
2022/05/17 09:58:29;;;;;;;10.75;4.55;;;;;;;25.57;47.77;101915.84;5013651;28;20057;-83
2022/05/17 10:00:56;;;;;;;11.02;4.00;;;;;;;26.04;45.69;101903.16;5009029;28;20070;-83
2022/05/17 10:03:26;;;;;;;10.88;3.42;;;;;;;26.48;45.40;101911.53;4996530;28;20038;-83
2022/05/17 10:06:02;;;;;;;7.45;3.70;;;;;;;26.84;44.57;101913.84;4996674;28;20129;-83
2022/05/17 10:08:30;;;;;;;11.93;3.90;;;;;;;27.09;42.09;101902.34;5012742;28;20026;-83
2022/05/17 10:11:16;;;;;;;8.25;3.65;;;;;;;27.36;43.67;101897.19;4996758;28;20492;-83
2022/05/17 10:14:17;;;;;;;8.07;3.00;;;;;;;27.52;43.58;101892.19;4996889;28;20038;-83
2022/05/17 10:17:04;;;;;;;10.35;3.20;;;;;;;27.51;43.08;101891.38;4965594;28;20060;-83
2022/05/17 10:19:40;;;;;;;9.38;3.05;;;;;;;27.33;41.91;101887.50;5014076;28;20030;-83
2022/05/17 10:22:44;;;;;;;7.37;3.20;;;;;;;27.37;43.04;101885.78;4996906;28;20088;-83
2022/05/17 10:25:46;;;;;;;6.68;2.92;;;;;;;27.28;42.41;101893.13;4936847;29;20038;-83
2022/05/17 10:28:18;;;;;;;8.25;2.50;;;;;;;26.86;39.91;101879.03;4963224;28;20537;-83
2022/05/17 10:31:01;;;;;;;11.02;2.80;;;;;;;27.01;41.22;101885.50;5013944;28;20478;-83
2022/05/17 10:33:36;;;;;;;8.60;3.00;;;;;;;27.14;40.31;101881.94;4996603;28;20042;-83
2022/05/17 10:36:05;;;;;;;5.17;2.53;;;;;;;27.39;40.02;101875.16;4996466;28;20128;-83
2022/05/17 10:38:39;;;;;;;6.85;3.15;;;;;;;27.75;39.65;101870.88;5014295;28;20040;-83
2022/05/17 10:41:11;;;;;;;7.88;2.95;;;;;;;28.04;38.75;101875.38;5014146;28;20076;-83
2022/05/17 10:43:41;;;;;;;8.98;3.60;;;;;;;28.09;37.32;101876.09;4996149;28;20030;-83
2022/05/17 10:46:18;;;;;;;6.25;2.95;;;;;;;28.43;36.79;101863.66;5012654;28;20442;-83
2022/05/17 10:49:14;;;;;;;8.60;2.97;;;;;;;28.91;37.32;101869.88;4996030;28;20110;-85
2022/05/17 10:52:10;;;;;;;8.55;3.42;;;;;;;29.21;37.33;101874.72;4995987;28;20474;-85
2022/05/17 10:55:05;;;;;;;8.13;2.60;;;;;;;29.85;36.83;101867.22;4995984;28;20029;-85
2022/05/17 10:57:50;;;;;;;6.40;2.78;;;;;;;29.90;33.48;101861.50;4995958;28;20036;-85
2022/05/17 11:00:18;;;;;;;11.25;3.00;;;;;;;29.90;33.46;101859.53;4996016;28;20397;-85
2022/05/17 11:03:12;;;;;;;10.63;3.20;;;;;;;30.08;35.05;101857.59;4996131;28;20095;-85
2022/05/17 11:05:54;;;;;;;7.82;3.35;;;;;;;30.30;34.50;101855.84;4995774;28;20026;-86
2022/05/17 11:08:41;;;;;;;12.15;3.33;;;;;;;30.46;32.85;101849.81;5012634;28;20065;-85
2022/05/17 11:11:38;;;;;;;9.85;3.88;;;;;;;30.78;32.76;101846.56;5013473;28;20025;-85
2022/05/17 11:14:26;;;;;;;7.93;4.45;;;;;;;30.85;32.98;101850.81;4999307;28;20034;-85
2022/05/17 11:17:12;;;;;;;6.63;3.50;;;;;;;31.47;33.08;101847.59;4999909;28;20032;-85
2022/05/17 11:19:47;;;;;;;11.00;4.50;;;;;;;32.71;30.25;101831.78;5016669;28;20030;-85
2022/05/17 11:22:24;;;;;;;9.02;4.55;;;;;;;34.33;28.69;101819.69;4999732;28;20173;-85
2022/05/17 11:25:01;;;;;;;9.20;4.90;;;;;;;35.76;26.44;101813.53;5015754;28;20433;-85
2022/05/17 11:27:43;;;;;;;7.40;4.90;;;;;;;37.17;24.09;101811.78;5017800;28;20093;-86
2022/05/17 11:30:11;;;;;;;11.43;4.80;;;;;;;37.89;23.61;101796.84;4999925;28;20038;-85
2022/05/17 11:32:42;;;;;;;8.63;4.55;;;;;;;38.64;21.89;101796.25;5017188;28;20381;-85
2022/05/17 11:35:48;;;;;;;13.35;5.20;;;;;;;40.41;22.22;101797.72;5017514;28;20034;-85
2022/05/17 11:38:37;;;;;;;11.00;5.25;;;;;;;40.77;19.78;101792.22;4991312;28;20045;-86
2022/05/17 11:41:17;;;;;;;9.15;4.88;;;;;;;41.49;19.05;101778.91;5015812;28;20124;-86